Chute-des-Passes, Canada
Current Conditions -  °F | °C
As of 3:00 PM on Friday 31 Oct 2014 (Local Time) from CYRJ Reporting Station
Broken Clouds Broken Clouds  
Wind Chill: 30°   Ceiling: 2500
Heat Index: 36°   Visibility: 40mi
Dew Point: 25°   Wind: 7mph
Humidity: 65%   Direction: 320°NW
Pressure: 30.1"   Gusts: NA
Location:  49.87°N, 71.28°W
Report Text: CYRJ 311900Z 32006KT 300V360 40SM FEW010 BKN025 BKN100 02/M04 A3010 RMK SF1SC7AC1 SF TR AC TR SLP203
Loading
Personal Weather Stations






























Interactive Weather Map
Tropical Storm Tracking
New forecast layout! Learn more

10-Day Weather Forecast

Advertisements
Track Severe Weather on mobile